sensor_id;sensor_type;location;lat;lon;timestamp;P1;durP1;ratioP1;P2;durP2;ratioP2
48285;SDS011;34102;47.716;10.296;2022-12-26T08:28:38;8.95;;;5.90;;
48285;SDS011;34102;47.716;10.296;2022-12-26T08:31:07;10.27;;;6.63;;
48285;SDS011;34102;47.716;10.296;2022-12-26T08:33:33;9.65;;;5.55;;
48285;SDS011;34102;47.716;10.296;2022-12-26T08:36:03;5.75;;;3.47;;
48285;SDS011;34102;47.716;10.296;2022-12-26T08:38:28;5.72;;;3.30;;
48285;SDS011;34102;47.716;10.296;2022-12-26T08:40:54;9.43;;;4.85;;
48285;SDS011;34102;47.716;10.296;2022-12-26T08:43:22;4.53;;;2.97;;
48285;SDS011;34102;47.716;10.296;2022-12-26T08:45:55;5.88;;;2.58;;
48285;SDS011;34102;47.716;10.296;2022-12-26T08:48:24;3.40;;;2.75;;
48285;SDS011;34102;47.716;10.296;2022-12-26T08:50:54;4.00;;;2.65;;
48285;SDS011;34102;47.716;10.296;2022-12-26T08:53:19;3.38;;;2.30;;
48285;SDS011;34102;47.716;10.296;2022-12-26T08:55:44;4.07;;;2.88;;
48285;SDS011;34102;47.716;10.296;2022-12-26T08:58:12;5.75;;;2.85;;
48285;SDS011;34102;47.716;10.296;2022-12-26T09:00:37;3.33;;;2.65;;
48285;SDS011;34102;47.716;10.296;2022-12-26T09:03:02;4.28;;;2.35;;
48285;SDS011;34102;47.716;10.296;2022-12-26T09:05:28;2.50;;;1.90;;
48285;SDS011;34102;47.716;10.296;2022-12-26T09:07:53;5.70;;;4.00;;
48285;SDS011;34102;47.716;10.296;2022-12-26T09:10:18;5.23;;;3.10;;
48285;SDS011;34102;47.716;10.296;2022-12-26T09:12:43;3.35;;;2.40;;
48285;SDS011;34102;47.716;10.296;2022-12-26T09:15:09;4.70;;;3.45;;
48285;SDS011;34102;47.716;10.296;2022-12-26T09:17:34;4.65;;;3.10;;
48285;SDS011;34102;47.716;10.296;2022-12-26T09:19:59;26.65;;;14.05;;
48285;SDS011;34102;47.716;10.296;2022-12-26T09:22:24;15.63;;;8.55;;
48285;SDS011;34102;47.716;10.296;2022-12-26T09:25:08;4.63;;;2.50;;
48285;SDS011;34102;47.716;10.296;2022-12-26T09:27:34;3.07;;;2.20;;
48285;SDS011;34102;47.716;10.296;2022-12-26T09:29:59;3.20;;;2.07;;
48285;SDS011;34102;47.716;10.296;2022-12-26T09:32:24;5.63;;;2.40;;
48285;SDS011;34102;47.716;10.296;2022-12-26T09:34:49;3.03;;;1.95;;
48285;SDS011;34102;47.716;10.296;2022-12-26T09:37:15;3.88;;;1.30;;
48285;SDS011;34102;47.716;10.296;2022-12-26T09:39:40;2.30;;;1.20;;
48285;SDS011;34102;47.716;10.296;2022-12-26T09:52:12;1.40;;;0.70;;
48285;SDS011;34102;47.716;10.296;2022-12-26T09:54:43;1.45;;;0.65;;
48285;SDS011;34102;47.716;10.296;2022-12-26T09:57:15;2.13;;;0.93;;
48285;SDS011;34102;47.716;10.296;2022-12-26T09:59:56;1.95;;;0.80;;
48285;SDS011;34102;47.716;10.296;2022-12-26T10:02:22;1.92;;;1.20;;
48285;SDS011;34102;47.716;10.296;2022-12-26T10:04:48;2.25;;;1.55;;
48285;SDS011;34102;47.716;10.296;2022-12-26T10:10:07;0.90;;;0.60;;
48285;SDS011;34102;47.716;10.296;2022-12-26T10:12:38;2.38;;;0.80;;
48285;SDS011;34102;47.716;10.296;2022-12-26T10:15:12;1.55;;;0.80;;
48285;SDS011;34102;47.716;10.296;2022-12-26T10:25:02;2.97;;;1.00;;
48285;SDS011;34102;47.716;10.296;2022-12-26T10:27:32;1.98;;;1.10;;
48285;SDS011;34102;47.716;10.296;2022-12-26T10:30:04;2.92;;;1.42;;
48285;SDS011;34102;47.716;10.296;2022-12-26T10:32:35;10.68;;;5.10;;
48285;SDS011;34102;47.716;10.296;2022-12-26T10:35:10;4.25;;;1.75;;
48285;SDS011;34102;47.716;10.296;2022-12-26T10:37:40;2.30;;;1.00;;
48285;SDS011;34102;47.716;10.296;2022-12-26T10:42:40;3.03;;;1.30;;
48285;SDS011;34102;47.716;10.296;2022-12-26T10:45:30;1.42;;;0.90;;
48285;SDS011;34102;47.716;10.296;2022-12-26T10:47:52;1.50;;;0.60;;
48285;SDS011;34102;47.716;10.296;2022-12-26T10:50:28;1.30;;;0.60;;
48285;SDS011;34102;47.716;10.296;2022-12-26T10:52:54;2.33;;;1.17;;
48285;SDS011;34102;47.716;10.296;2022-12-26T10:55:22;2.28;;;0.60;;
48285;SDS011;34102;47.716;10.296;2022-12-26T10:57:49;1.10;;;0.70;;
48285;SDS011;34102;47.716;10.296;2022-12-26T11:00:19;1.65;;;1.00;;
48285;SDS011;34102;47.716;10.296;2022-12-26T11:02:45;1.75;;;0.80;;
48285;SDS011;34102;47.716;10.296;2022-12-26T11:05:25;1.23;;;0.47;;
48285;SDS011;34102;47.716;10.296;2022-12-26T11:07:51;1.43;;;0.80;;
48285;SDS011;34102;47.716;10.296;2022-12-26T11:10:20;1.48;;;0.95;;
48285;SDS011;34102;47.716;10.296;2022-12-26T11:12:50;0.88;;;0.50;;
48285;SDS011;34102;47.716;10.296;2022-12-26T11:15:17;1.20;;;0.50;;
48285;SDS011;34102;47.716;10.296;2022-12-26T11:17:44;0.57;;;0.30;;
48285;SDS011;34102;47.716;10.296;2022-12-26T11:22:39;1.73;;;0.70;;
48285;SDS011;34102;47.716;10.296;2022-12-26T11:25:23;1.50;;;0.30;;
48285;SDS011;34102;47.716;10.296;2022-12-26T11:27:50;0.80;;;0.30;;
48285;SDS011;34102;47.716;10.296;2022-12-26T11:30:18;2.00;;;0.65;;
48285;SDS011;34102;47.716;10.296;2022-12-26T11:33:00;1.13;;;0.55;;
48285;SDS011;34102;47.716;10.296;2022-12-26T11:35:27;1.83;;;0.95;;
48285;SDS011;34102;47.716;10.296;2022-12-26T11:37:59;2.10;;;0.73;;
48285;SDS011;34102;47.716;10.296;2022-12-26T11:40:37;1.63;;;0.85;;
48285;SDS011;34102;47.716;10.296;2022-12-26T11:43:06;2.17;;;0.80;;
48285;SDS011;34102;47.716;10.296;2022-12-26T11:45:40;3.42;;;1.35;;
48285;SDS011;34102;47.716;10.296;2022-12-26T11:48:07;2.25;;;1.20;;
48285;SDS011;34102;47.716;10.296;2022-12-26T11:50:43;1.92;;;1.23;;
48285;SDS011;34102;47.716;10.296;2022-12-26T11:53:09;4.50;;;1.45;;
48285;SDS011;34102;47.716;10.296;2022-12-26T11:55:40;2.10;;;1.10;;
48285;SDS011;34102;47.716;10.296;2022-12-26T12:00:32;3.80;;;1.50;;
48285;SDS011;34102;47.716;10.296;2022-12-26T12:02:58;4.40;;;1.55;;
48285;SDS011;34102;47.716;10.296;2022-12-26T12:05:28;3.00;;;1.27;;
48285;SDS011;34102;47.716;10.296;2022-12-26T12:15:45;2.80;;;1.60;;
48285;SDS011;34102;47.716;10.296;2022-12-26T12:18:21;2.63;;;1.73;;
48285;SDS011;34102;47.716;10.296;2022-12-26T12:21:01;3.40;;;1.65;;
48285;SDS011;34102;47.716;10.296;2022-12-26T12:23:35;11.95;;;5.32;;
48285;SDS011;34102;47.716;10.296;2022-12-26T12:26:21;6.22;;;2.20;;
48285;SDS011;34102;47.716;10.296;2022-12-26T12:31:23;3.67;;;2.10;;
48285;SDS011;34102;47.716;10.296;2022-12-26T12:33:58;4.32;;;2.15;;
48285;SDS011;34102;47.716;10.296;2022-12-26T12:39:01;2.17;;;1.73;;
48285;SDS011;34102;47.716;10.296;2022-12-26T12:46:52;4.53;;;2.10;;
48285;SDS011;34102;47.716;10.296;2022-12-26T12:49:26;4.32;;;1.92;;
48285;SDS011;34102;47.716;10.296;2022-12-26T12:55:06;3.40;;;2.20;;
48285;SDS011;34102;47.716;10.296;2022-12-26T12:57:14;2.30;;;1.35;;
48285;SDS011;34102;47.716;10.296;2022-12-26T13:02:22;1.73;;;1.60;;
48285;SDS011;34102;47.716;10.296;2022-12-26T13:04:53;3.08;;;1.98;;
48285;SDS011;34102;47.716;10.296;2022-12-26T13:07:28;2.28;;;1.52;;
48285;SDS011;34102;47.716;10.296;2022-12-26T13:09:56;3.33;;;1.20;;
48285;SDS011;34102;47.716;10.296;2022-12-26T13:12:23;1.55;;;1.25;;
48285;SDS011;34102;47.716;10.296;2022-12-26T13:14:56;2.20;;;1.20;;
48285;SDS011;34102;47.716;10.296;2022-12-26T13:17:33;2.63;;;1.75;;
48285;SDS011;34102;47.716;10.296;2022-12-26T13:20:02;3.03;;;1.50;;
48285;SDS011;34102;47.716;10.296;2022-12-26T13:22:42;1.92;;;1.30;;
48285;SDS011;34102;47.716;10.296;2022-12-26T13:25:27;2.10;;;1.23;;
48285;SDS011;34102;47.716;10.296;2022-12-26T13:27:55;2.97;;;1.80;;
48285;SDS011;34102;47.716;10.296;2022-12-26T13:30:33;4.00;;;1.35;;
48285;SDS011;34102;47.716;10.296;2022-12-26T13:32:58;2.47;;;1.20;;
48285;SDS011;34102;47.716;10.296;2022-12-26T13:38:07;1.85;;;1.00;;
48285;SDS011;34102;47.716;10.296;2022-12-26T13:40:33;2.07;;;0.87;;
48285;SDS011;34102;47.716;10.296;2022-12-26T13:43:06;1.20;;;0.73;;
48285;SDS011;34102;47.716;10.296;2022-12-26T13:45:55;1.20;;;0.60;;
48285;SDS011;34102;47.716;10.296;2022-12-26T13:50:58;2.25;;;1.02;;
48285;SDS011;34102;47.716;10.296;2022-12-26T13:53:27;1.90;;;1.10;;
48285;SDS011;34102;47.716;10.296;2022-12-26T13:55:55;2.00;;;0.73;;
48285;SDS011;34102;47.716;10.296;2022-12-26T13:58:24;1.17;;;0.68;;
48285;SDS011;34102;47.716;10.296;2022-12-26T14:00:51;4.72;;;1.17;;
48285;SDS011;34102;47.716;10.296;2022-12-26T14:14:07;1.73;;;1.27;;
48285;SDS011;34102;47.716;10.296;2022-12-26T14:16:52;2.08;;;1.40;;
48285;SDS011;34102;47.716;10.296;2022-12-26T14:22:02;2.70;;;1.77;;
48285;SDS011;34102;47.716;10.296;2022-12-26T14:24:41;1.90;;;1.00;;
48285;SDS011;34102;47.716;10.296;2022-12-26T14:27:24;1.98;;;0.98;;
48285;SDS011;34102;47.716;10.296;2022-12-26T14:29:54;1.95;;;1.10;;
48285;SDS011;34102;47.716;10.296;2022-12-26T14:32:31;14.15;;;8.27;;
48285;SDS011;34102;47.716;10.296;2022-12-26T14:35:05;2.53;;;1.60;;
48285;SDS011;34102;47.716;10.296;2022-12-26T14:43:07;2.08;;;0.90;;
48285;SDS011;34102;47.716;10.296;2022-12-26T14:48:00;2.25;;;0.60;;
48285;SDS011;34102;47.716;10.296;2022-12-26T14:55:55;0.93;;;0.35;;
48285;SDS011;34102;47.716;10.296;2022-12-26T14:58:26;2.55;;;0.40;;
48285;SDS011;34102;47.716;10.296;2022-12-26T15:00:52;0.70;;;0.20;;
48285;SDS011;34102;47.716;10.296;2022-12-26T15:05:49;0.68;;;0.40;;
48285;SDS011;34102;47.716;10.296;2022-12-26T15:08:23;0.90;;;0.30;;
48285;SDS011;34102;47.716;10.296;2022-12-26T15:19:06;0.80;;;0.30;;
48285;SDS011;34102;47.716;10.296;2022-12-26T15:26:37;0.70;;;0.20;;
48285;SDS011;34102;47.716;10.296;2022-12-26T15:31:56;1.02;;;0.50;;
48285;SDS011;34102;47.716;10.296;2022-12-26T15:37:11;2.75;;;1.38;;
48285;SDS011;34102;47.716;10.296;2022-12-26T15:39:41;11.27;;;6.03;;
48285;SDS011;34102;47.716;10.296;2022-12-26T15:47:28;1.85;;;0.50;;
48285;SDS011;34102;47.716;10.296;2022-12-26T15:50:01;0.88;;;0.60;;
48285;SDS011;34102;47.716;10.296;2022-12-26T15:57:49;2.20;;;0.20;;
48285;SDS011;34102;47.716;10.296;2022-12-26T16:00:19;0.77;;;0.30;;
48285;SDS011;34102;47.716;10.296;2022-12-26T16:05:32;0.70;;;0.28;;
48285;SDS011;34102;47.716;10.296;2022-12-26T16:10:44;0.35;;;0.10;;
48285;SDS011;34102;47.716;10.296;2022-12-26T16:15:54;1.80;;;0.10;;
48285;SDS011;34102;47.716;10.296;2022-12-26T16:18:30;1.02;;;0.30;;
48285;SDS011;34102;47.716;10.296;2022-12-26T16:20:57;1.30;;;0.35;;
48285;SDS011;34102;47.716;10.296;2022-12-26T16:23:42;0.40;;;0.20;;
48285;SDS011;34102;47.716;10.296;2022-12-26T16:26:18;0.47;;;0.20;;
48285;SDS011;34102;47.716;10.296;2022-12-26T16:28:44;2.08;;;0.20;;
48285;SDS011;34102;47.716;10.296;2022-12-26T16:31:17;0.40;;;0.20;;
48285;SDS011;34102;47.716;10.296;2022-12-26T16:33:43;0.30;;;0.10;;
48285;SDS011;34102;47.716;10.296;2022-12-26T16:36:10;0.20;;;0.03;;
48285;SDS011;34102;47.716;10.296;2022-12-26T16:38:39;0.40;;;0.10;;
48285;SDS011;34102;47.716;10.296;2022-12-26T16:41:25;0.35;;;0.20;;
48285;SDS011;34102;47.716;10.296;2022-12-26T16:43:50;1.05;;;0.47;;
48285;SDS011;34102;47.716;10.296;2022-12-26T16:46:16;0.60;;;0.25;;
48285;SDS011;34102;47.716;10.296;2022-12-26T16:48:51;0.20;;;0.10;;
48285;SDS011;34102;47.716;10.296;2022-12-26T16:51:39;0.60;;;0.28;;
48285;SDS011;34102;47.716;10.296;2022-12-26T16:56:28;0.28;;;0.10;;
48285;SDS011;34102;47.716;10.296;2022-12-26T16:59:05;0.50;;;0.20;;
48285;SDS011;34102;47.716;10.296;2022-12-26T17:01:31;0.70;;;0.30;;
48285;SDS011;34102;47.716;10.296;2022-12-26T17:04:15;0.65;;;0.30;;
48285;SDS011;34102;47.716;10.296;2022-12-26T17:06:47;0.70;;;0.20;;
48285;SDS011;34102;47.716;10.296;2022-12-26T17:09:15;0.60;;;0.30;;
48285;SDS011;34102;47.716;10.296;2022-12-26T17:11:47;1.08;;;0.30;;
48285;SDS011;34102;47.716;10.296;2022-12-26T17:14:37;2.45;;;0.50;;
48285;SDS011;34102;47.716;10.296;2022-12-26T17:19:27;1.48;;;0.10;;
48285;SDS011;34102;47.716;10.296;2022-12-26T17:24:37;1.80;;;0.20;;
48285;SDS011;34102;47.716;10.296;2022-12-26T17:27:36;0.57;;;0.20;;
48285;SDS011;34102;47.716;10.296;2022-12-26T17:29:59;0.90;;;0.20;;
48285;SDS011;34102;47.716;10.296;2022-12-26T17:32:35;1.08;;;0.10;;
48285;SDS011;34102;47.716;10.296;2022-12-26T17:37:29;0.17;;;0.08;;
48285;SDS011;34102;47.716;10.296;2022-12-26T17:39:59;0.35;;;0.13;;
48285;SDS011;34102;47.716;10.296;2022-12-26T17:42:26;0.30;;;0.10;;
48285;SDS011;34102;47.716;10.296;2022-12-26T17:44:52;0.60;;;0.10;;
48285;SDS011;34102;47.716;10.296;2022-12-26T17:49:42;0.65;;;0.20;;
48285;SDS011;34102;47.716;10.296;2022-12-26T17:52:08;0.10;;;0.00;;
48285;SDS011;34102;47.716;10.296;2022-12-26T17:54:34;0.40;;;0.10;;
48285;SDS011;34102;47.716;10.296;2022-12-26T17:56:59;0.20;;;0.10;;
48285;SDS011;34102;47.716;10.296;2022-12-26T17:59:24;0.28;;;0.10;;
48285;SDS011;34102;47.716;10.296;2022-12-26T18:01:50;0.10;;;0.00;;
48285;SDS011;34102;47.716;10.296;2022-12-26T18:04:15;0.38;;;0.10;;
48285;SDS011;34102;47.716;10.296;2022-12-26T18:06:40;0.30;;;0.10;;
48285;SDS011;34102;47.716;10.296;2022-12-26T18:09:06;1.02;;;0.10;;
48285;SDS011;34102;47.716;10.296;2022-12-26T18:11:34;0.13;;;0.00;;
48285;SDS011;34102;47.716;10.296;2022-12-26T18:14:00;0.30;;;0.10;;
48285;SDS011;34102;47.716;10.296;2022-12-26T18:16:25;0.10;;;0.10;;
48285;SDS011;34102;47.716;10.296;2022-12-26T18:18:53;0.30;;;0.10;;
48285;SDS011;34102;47.716;10.296;2022-12-26T18:21:18;0.52;;;0.10;;
48285;SDS011;34102;47.716;10.296;2022-12-26T18:23:44;0.40;;;0.10;;
48285;SDS011;34102;47.716;10.296;2022-12-26T18:26:14;0.45;;;0.13;;
48285;SDS011;34102;47.716;10.296;2022-12-26T18:28:41;0.57;;;0.10;;
48285;SDS011;34102;47.716;10.296;2022-12-26T18:31:07;0.52;;;0.10;;
48285;SDS011;34102;47.716;10.296;2022-12-26T18:33:33;0.20;;;0.10;;
48285;SDS011;34102;47.716;10.296;2022-12-26T18:35:58;0.40;;;0.32;;
48285;SDS011;34102;47.716;10.296;2022-12-26T18:38:23;0.10;;;0.10;;
48285;SDS011;34102;47.716;10.296;2022-12-26T18:40:49;0.35;;;0.08;;
48285;SDS011;34102;47.716;10.296;2022-12-26T18:43:16;0.20;;;0.10;;
48285;SDS011;34102;47.716;10.296;2022-12-26T18:45:42;0.70;;;0.10;;
48285;SDS011;34102;47.716;10.296;2022-12-26T18:48:10;1.83;;;0.95;;
48285;SDS011;34102;47.716;10.296;2022-12-26T18:50:36;0.75;;;0.20;;
48285;SDS011;34102;47.716;10.296;2022-12-26T18:53:02;0.65;;;0.13;;
48285;SDS011;34102;47.716;10.296;2022-12-26T18:55:27;0.20;;;0.08;;
48285;SDS011;34102;47.716;10.296;2022-12-26T18:57:53;0.20;;;0.10;;
48285;SDS011;34102;47.716;10.296;2022-12-26T19:00:19;0.38;;;0.10;;
48285;SDS011;34102;47.716;10.296;2022-12-26T19:02:45;0.22;;;0.10;;
48285;SDS011;34102;47.716;10.296;2022-12-26T19:05:19;0.85;;;0.10;;
48285;SDS011;34102;47.716;10.296;2022-12-26T19:07:44;0.60;;;0.22;;
48285;SDS011;34102;47.716;10.296;2022-12-26T19:10:13;0.38;;;0.13;;
48285;SDS011;34102;47.716;10.296;2022-12-26T19:12:38;1.23;;;0.40;;
48285;SDS011;34102;47.716;10.296;2022-12-26T19:15:04;1.83;;;0.30;;
48285;SDS011;34102;47.716;10.296;2022-12-26T19:17:30;0.50;;;0.20;;
48285;SDS011;34102;47.716;10.296;2022-12-26T19:19:55;0.77;;;0.30;;
48285;SDS011;34102;47.716;10.296;2022-12-26T19:22:20;1.48;;;0.65;;
48285;SDS011;34102;47.716;10.296;2022-12-26T19:24:45;1.35;;;0.20;;
48285;SDS011;34102;47.716;10.296;2022-12-26T19:27:11;0.55;;;0.10;;
48285;SDS011;34102;47.716;10.296;2022-12-26T19:29:37;0.40;;;0.10;;
48285;SDS011;34102;47.716;10.296;2022-12-26T19:32:03;0.13;;;0.10;;
48285;SDS011;34102;47.716;10.296;2022-12-26T19:34:28;1.38;;;0.30;;
48285;SDS011;34102;47.716;10.296;2022-12-26T19:36:53;0.30;;;0.10;;
48285;SDS011;34102;47.716;10.296;2022-12-26T19:39:19;0.20;;;0.10;;
48285;SDS011;34102;47.716;10.296;2022-12-26T19:41:44;1.10;;;0.30;;
48285;SDS011;34102;47.716;10.296;2022-12-26T19:44:10;0.40;;;0.10;;
48285;SDS011;34102;47.716;10.296;2022-12-26T19:46:35;0.20;;;0.10;;
48285;SDS011;34102;47.716;10.296;2022-12-26T19:49:00;0.20;;;0.10;;
48285;SDS011;34102;47.716;10.296;2022-12-26T19:51:25;0.70;;;0.20;;
48285;SDS011;34102;47.716;10.296;2022-12-26T19:53:51;0.27;;;0.10;;
48285;SDS011;34102;47.716;10.296;2022-12-26T19:56:18;0.38;;;0.10;;
48285;SDS011;34102;47.716;10.296;2022-12-26T19:58:43;0.82;;;0.45;;
48285;SDS011;34102;47.716;10.296;2022-12-26T20:01:10;0.17;;;0.10;;
48285;SDS011;34102;47.716;10.296;2022-12-26T20:03:35;0.65;;;0.20;;
48285;SDS011;34102;47.716;10.296;2022-12-26T20:06:11;0.10;;;0.10;;
48285;SDS011;34102;47.716;10.296;2022-12-26T20:08:36;0.30;;;0.10;;
48285;SDS011;34102;47.716;10.296;2022-12-26T20:11:08;0.50;;;0.20;;
48285;SDS011;34102;47.716;10.296;2022-12-26T20:13:36;0.30;;;0.10;;
48285;SDS011;34102;47.716;10.296;2022-12-26T20:16:03;0.30;;;0.10;;
48285;SDS011;34102;47.716;10.296;2022-12-26T20:18:28;0.55;;;0.10;;
48285;SDS011;34102;47.716;10.296;2022-12-26T20:20:54;0.38;;;0.10;;
48285;SDS011;34102;47.716;10.296;2022-12-26T20:23:19;1.00;;;0.10;;
48285;SDS011;34102;47.716;10.296;2022-12-26T20:25:44;0.45;;;0.17;;
48285;SDS011;34102;47.716;10.296;2022-12-26T20:28:09;0.50;;;0.10;;
48285;SDS011;34102;47.716;10.296;2022-12-26T20:30:35;0.52;;;0.00;;
48285;SDS011;34102;47.716;10.296;2022-12-26T20:33:00;0.65;;;0.25;;
48285;SDS011;34102;47.716;10.296;2022-12-26T20:35:25;0.40;;;0.20;;
48285;SDS011;34102;47.716;10.296;2022-12-26T20:37:50;0.30;;;0.10;;
48285;SDS011;34102;47.716;10.296;2022-12-26T20:40:16;0.70;;;0.20;;
48285;SDS011;34102;47.716;10.296;2022-12-26T20:42:41;0.55;;;0.20;;
48285;SDS011;34102;47.716;10.296;2022-12-26T20:45:06;0.25;;;0.10;;
48285;SDS011;34102;47.716;10.296;2022-12-26T20:47:32;0.28;;;0.10;;
48285;SDS011;34102;47.716;10.296;2022-12-26T20:50:00;0.10;;;0.00;;
48285;SDS011;34102;47.716;10.296;2022-12-26T20:52:25;0.50;;;0.05;;
48285;SDS011;34102;47.716;10.296;2022-12-26T20:54:50;0.20;;;0.10;;
48285;SDS011;34102;47.716;10.296;2022-12-26T20:57:16;1.08;;;0.00;;
48285;SDS011;34102;47.716;10.296;2022-12-26T20:59:42;0.10;;;0.10;;
48285;SDS011;34102;47.716;10.296;2022-12-26T21:02:08;0.20;;;0.00;;
48285;SDS011;34102;47.716;10.296;2022-12-26T21:04:33;0.63;;;0.13;;
48285;SDS011;34102;47.716;10.296;2022-12-26T21:06:58;0.40;;;0.10;;
48285;SDS011;34102;47.716;10.296;2022-12-26T21:09:24;0.40;;;0.10;;
48285;SDS011;34102;47.716;10.296;2022-12-26T21:11:49;1.27;;;0.10;;
48285;SDS011;34102;47.716;10.296;2022-12-26T21:14:15;0.90;;;0.20;;
48285;SDS011;34102;47.716;10.296;2022-12-26T21:16:43;0.40;;;0.10;;
48285;SDS011;34102;47.716;10.296;2022-12-26T21:19:09;0.73;;;0.08;;
48285;SDS011;34102;47.716;10.296;2022-12-26T21:21:35;0.20;;;0.10;;
48285;SDS011;34102;47.716;10.296;2022-12-26T21:24:02;0.32;;;0.10;;
48285;SDS011;34102;47.716;10.296;2022-12-26T21:26:29;0.52;;;0.28;;
48285;SDS011;34102;47.716;10.296;2022-12-26T21:28:55;0.35;;;0.13;;
